Farrell, PA (16121)

6:29 PM EST on December 10, 2016 (GMT -0500)
Frampton Rd | | Change Station
Active Advisory: Winter Weather Advisory

Elev 1109 ft 41.20 °N, 80.42 °W | Updated 16 seconds ago

Overcast
Overcast
23.7 °F
Feels Like 24 °F
N
0.0
Wind Variable Wind from West

Today
High -- | Low -- °F
--% Chance of Precip.
Yesterday
High -- | Low -- °F
Precip. -- in
Pressure 30.48 in
Visibility 9.0 miles
Clouds Few 2800 ft
Overcast 3900 ft
Windchill 24 °F
Dew Point 16 °F
Humidity 75%
Rainfall 0.00 in
Snow Depth Not available.
7:37 AM 4:53 PM
Waxing Gibbous, 87% visible
METAR KYNG 102251Z 23009KT 9SM -SN FEW028 OVC039 M04/M10 A3042 RMK AO2 SLP321 P0000 T10441100
Pressure 30.48 in
Visibility 9.0 miles
Clouds Few 2800 ft
Overcast 3900 ft
Windchill 24 °F
Dew Point 16 °F
Humidity 75%
Rainfall 0.00 in
Snow Depth Not available.
7:37 AM 4:53 PM
Waxing Gibbous, 87% visible
METAR KYNG 102251Z 23009KT 9SM -SN FEW028 OVC039 M04/M10 A3042 RMK AO2 SLP321 P0000 T10441100

10-Day Weather Forecast

Almanac

Astronomy

Dec. 10, 2016 Rise Set
Actual Time
Civil Twilight
Nautical Twilight
Astronomical Twilight
Moon
Length of Visible Light
Length of Day
Tomorrow will be .
, % of the Moon is Illuminated

Today's Extremes

State Highs State Lows

Community

WunderPhotos

Upload Photos

1,956,671 photos uploaded!

WunderBlog® & News

Nearby

Air Quality

  Air Quality AQ Index Pollutant
Not available.

Snow Depth

Station Depth Elevation

Earthquake Activity

City Distance Mag. Time & Date
Minimum magnitude displayed is 2.5.

Coastal Water Temperatures

Place Temperature

Stations

Nearby Weather Stations

Station Location Temp. Windchill Dew Point Humidity Wind Precip. Elev Updated Type
                   

Watches & Warnings

Winter Weather Advisory
Issued: 1:37 PM EST Dec. 10, 2016 – National Weather Service

... Winter Weather Advisory in effect from midnight tonight to
4 am EST Monday...

The National Weather Service in Pittsburgh has issued a Winter
Weather Advisory for snow and freezing rain... which is in effect
from midnight tonight to 4 am EST Monday.

* Hazard types... snow tonight and Sunday... mixing with freezing
rain Sunday night.

* Accumulations... snow accumulation of 4 to 6 inches... along with
around a trace of ice.

* Timing... snow beginning near midnight tonight and continuing
into Sunday night, mixing with freezing rain late evening.

* Impacts... snow and ice accumulations will create treacherous
driving conditions.

* Winds... south 5 to 10 mph.

Precautionary/preparedness actions...

A Winter Weather Advisory means that periods of snow... sleet... or
freezing rain will cause travel difficulties. Be prepared for
slippery roads and limited visibilities... and use caution while
driving.